createdAt,value
2022-09-06T03:57:35.634Z,64.92
2022-09-06T04:00:38.278Z,64.92
2022-09-06T04:03:41.000Z,66.17
2022-09-06T04:06:43.111Z,66.56
2022-09-06T04:09:45.447Z,65.59
2022-09-06T04:12:47.504Z,65.42
2022-09-06T04:15:50.362Z,65.64
2022-09-06T04:18:52.438Z,65.21
2022-09-06T04:21:54.768Z,64.00
2022-09-06T04:24:56.838Z,64.30
2022-09-06T04:27:59.246Z,64.74
2022-09-06T04:31:04.923Z,63.89
2022-09-06T04:34:07.804Z,63.34
2022-09-06T04:37:09.955Z,63.48
2022-09-06T04:40:12.311Z,63.08
2022-09-06T04:43:14.421Z,62.58
2022-09-06T04:46:19.739Z,62.92
2022-09-06T04:49:23.606Z,62.27
2022-09-06T04:52:29.967Z,62.44
2022-09-06T04:55:33.879Z,61.84
2022-09-06T04:58:36.229Z,61.90
2022-09-06T05:01:38.298Z,62.84
2022-09-06T05:04:40.647Z,62.05
2022-09-06T05:07:42.720Z,61.93
2022-09-06T05:10:45.089Z,60.65
2022-09-06T05:13:47.714Z,61.28
2022-09-06T05:16:53.221Z,56.69
2022-09-06T05:19:55.353Z,57.82
2022-09-06T05:22:57.691Z,56.77
2022-09-06T05:25:59.754Z,55.44
2022-09-06T05:29:02.115Z,56.57
2022-09-06T05:32:04.418Z,56.57
2022-09-06T05:35:07.011Z,58.42
2022-09-06T05:38:09.090Z,58.29
2022-09-06T05:41:11.601Z,57.81
2022-09-06T05:44:14.418Z,59.42
2022-09-06T05:47:16.749Z,59.40
2022-09-06T05:50:18.834Z,58.59
2022-09-06T05:53:21.150Z,58.87
2022-09-06T05:56:24.577Z,57.70
2022-09-06T05:59:26.642Z,59.13
2022-09-06T06:02:29.086Z,56.03
2022-09-06T06:05:31.483Z,54.11
2022-09-06T06:08:34.994Z,53.79
2022-09-06T06:11:37.581Z,52.72
2022-09-06T06:14:39.711Z,50.24
2022-09-06T06:17:42.046Z,51.06
2022-09-06T06:20:44.102Z,50.22
2022-09-06T06:23:49.084Z,49.16
2022-09-06T06:26:51.324Z,49.66
2022-09-06T06:29:53.883Z,49.13
2022-09-06T06:32:56.325Z,48.16
2022-09-06T06:36:01.538Z,48.22
2022-09-06T06:39:07.371Z,46.69
2022-09-06T06:42:12.134Z,46.92
2022-09-06T06:45:16.166Z,47.31
2022-09-06T06:48:18.683Z,47.80
2022-09-06T06:51:21.998Z,47.00
2022-09-06T06:54:24.386Z,46.89
2022-09-06T06:57:26.734Z,47.55
2022-09-06T07:00:29.186Z,47.64
2022-09-06T07:03:31.278Z,46.53
2022-09-06T07:13:33.832Z,47.12
2022-09-06T07:16:35.969Z,47.33
2022-09-06T07:26:26.992Z,47.33
2022-09-06T07:29:29.050Z,46.91
2022-09-06T07:32:34.359Z,46.93
2022-09-06T07:35:36.417Z,48.20
2022-09-06T07:38:38.975Z,48.21
2022-09-06T07:41:42.449Z,49.03
2022-09-06T07:44:44.865Z,48.50
2022-09-06T07:47:57.356Z,47.62
2022-09-06T07:51:20.360Z,46.98
2022-09-06T07:54:31.145Z,48.19
2022-09-06T07:57:33.885Z,47.82
2022-09-06T08:00:36.297Z,46.94
2022-09-06T08:03:38.722Z,46.44
2022-09-06T08:10:06.209Z,46.77
2022-09-06T08:13:08.278Z,46.97
2022-09-06T08:16:12.426Z,47.20
2022-09-06T08:19:14.769Z,47.84
2022-09-06T08:22:17.156Z,48.35
2022-09-06T08:25:19.241Z,47.51
2022-09-06T08:28:24.460Z,47.24
2022-09-06T08:31:30.040Z,47.09
2022-09-06T08:34:32.457Z,47.12
2022-09-06T08:37:34.619Z,46.59
2022-09-06T08:40:38.674Z,47.83
2022-09-06T08:47:20.386Z,47.38
2022-09-06T08:50:24.950Z,46.80
2022-09-06T08:53:27.306Z,47.84
2022-09-06T08:56:37.763Z,47.44
2022-09-06T08:59:42.898Z,47.91
2022-09-06T09:02:49.338Z,47.19
2022-09-06T09:05:53.794Z,46.63
2022-09-06T09:09:06.780Z,48.57
2022-09-06T09:12:15.346Z,47.22
2022-09-06T09:15:19.622Z,52.02
2022-09-06T09:18:26.922Z,50.51
2022-09-06T09:21:32.872Z,47.36
2022-09-06T09:24:36.892Z,47.48
2022-09-06T09:27:39.647Z,48.15
2022-09-06T09:30:53.625Z,47.93
2022-09-06T09:33:56.183Z,48.19
2022-09-06T09:41:03.342Z,47.94
2022-09-06T09:44:16.282Z,47.38
2022-09-06T10:07:24.855Z,47.34
2022-09-06T10:10:31.041Z,48.15
2022-09-06T10:13:34.242Z,47.82
2022-09-06T10:16:44.905Z,48.91
2022-09-06T10:19:48.705Z,47.69
2022-09-06T10:22:59.821Z,47.13
2022-09-06T10:26:22.452Z,48.66
2022-09-06T10:29:50.145Z,48.99
2022-09-06T10:33:01.789Z,48.46
2022-09-06T10:36:04.766Z,48.56
2022-09-06T10:39:30.703Z,50.50
2022-09-06T10:42:45.454Z,47.67
2022-09-06T10:46:02.279Z,47.78
2022-09-06T10:49:09.726Z,47.58
2022-09-06T10:52:20.063Z,47.96
2022-09-06T10:55:22.806Z,49.00
2022-09-06T11:02:05.872Z,49.77
2022-09-06T11:08:47.758Z,48.98
2022-09-06T11:12:21.339Z,49.16
2022-09-06T11:15:26.857Z,49.87
2022-09-06T11:19:05.273Z,48.93
2022-09-06T11:22:34.692Z,48.61
2022-09-06T11:25:55.357Z,49.39
2022-09-06T11:29:04.237Z,48.62
2022-09-06T11:32:44.726Z,48.98
2022-09-06T11:35:46.905Z,50.23
2022-09-06T11:39:01.233Z,48.86
2022-09-06T11:42:29.876Z,49.12
2022-09-06T11:45:51.007Z,48.16
2022-09-06T11:49:07.964Z,47.87
2022-09-06T11:52:52.335Z,47.36
2022-09-06T11:56:00.111Z,48.20
2022-09-06T11:59:18.660Z,46.95
2022-09-06T12:02:36.288Z,47.00
2022-09-06T12:06:21.040Z,46.83
2022-09-06T12:09:30.609Z,47.28
2022-09-06T12:12:39.799Z,48.22
2022-09-06T12:15:51.847Z,45.38
2022-09-06T12:18:56.330Z,46.56
2022-09-06T12:21:58.418Z,46.40
2022-09-06T12:25:03.542Z,46.82
2022-09-06T12:28:09.586Z,46.72
2022-09-06T12:31:39.559Z,46.20
2022-09-06T12:34:45.113Z,44.91
2022-09-06T12:38:06.852Z,44.56
2022-09-06T12:41:09.015Z,47.18
2022-09-06T12:44:13.260Z,46.06
2022-09-06T12:47:27.350Z,45.24
2022-09-06T12:50:31.467Z,45.59
2022-09-06T12:53:34.770Z,43.88
2022-09-06T12:56:37.233Z,44.92
2022-09-06T12:59:47.822Z,44.63
2022-09-06T13:03:21.436Z,44.88
2022-09-06T13:06:27.376Z,44.32
2022-09-06T13:09:31.321Z,45.44
2022-09-06T13:12:42.725Z,44.57
2022-09-06T13:15:46.910Z,44.80
2022-09-06T13:18:49.390Z,44.20
2022-09-06T13:21:51.934Z,44.94
2022-09-06T13:24:56.508Z,44.43
2022-09-06T13:28:01.425Z,45.55
2022-09-06T13:31:14.247Z,45.79
2022-09-06T13:34:22.638Z,46.17
2022-09-06T13:37:27.397Z,46.08
2022-09-06T13:41:06.735Z,46.86
2022-09-06T13:44:14.692Z,46.73
2022-09-06T13:47:17.140Z,46.26
2022-09-06T13:50:20.674Z,46.85
2022-09-06T13:53:25.081Z,46.44
2022-09-06T13:56:27.554Z,46.73
2022-09-06T13:59:31.426Z,46.94
2022-09-06T14:02:33.566Z,48.47
2022-09-06T14:05:38.916Z,47.06
2022-09-06T14:09:05.870Z,47.47
2022-09-06T14:12:06.841Z,49.52
2022-09-06T14:15:09.921Z,50.69
2022-09-06T14:18:14.597Z,49.95
2022-09-06T14:21:16.831Z,48.81
2022-09-06T14:24:19.200Z,48.01
2022-09-06T14:27:21.894Z,49.24
2022-09-06T14:30:24.423Z,49.85
2022-09-06T14:33:26.500Z,49.85
2022-09-06T14:36:31.072Z,49.43
2022-09-06T14:39:33.198Z,48.78
2022-09-06T14:42:35.542Z,48.49
2022-09-06T14:45:37.657Z,48.94
2022-09-06T14:48:42.423Z,48.40
2022-09-06T14:51:45.862Z,49.19
2022-09-06T14:54:48.201Z,48.81
2022-09-06T14:57:50.472Z,48.91
2022-09-06T15:00:52.917Z,49.62
2022-09-06T15:03:57.569Z,49.36
2022-09-06T15:07:00.764Z,49.46
